Time;durP1;ratioP1;P1;durP2;ratioP2;P2;SDS_P1;SDS_P2;PMS_P1;PMS_P2;Temp;Humidity;BMP_temperature;BMP_pressure;BME280_temperature;BME280_humidity;BME280_pressure;Samples;Min_cycle;Max_cycle;Signal;HPM_P1;HPM_P2
2023/08/14 00:01:21;;;;;;;2.57;1.77;;;;;;;18.93;100.00;95967.41;5053545;28;25136;-74
2023/08/14 00:03:48;;;;;;;3.78;2.30;;;;;;;18.94;100.00;95973.50;5053687;28;25001;-75
2023/08/14 00:06:15;;;;;;;2.83;2.00;;;;;;;18.93;100.00;95977.91;5053396;28;24435;-75
2023/08/14 00:08:42;;;;;;;3.15;1.85;;;;;;;18.95;100.00;95972.50;5053187;28;24439;-74
2023/08/14 00:11:08;;;;;;;3.70;2.05;;;;;;;18.95;100.00;95976.00;5053628;28;24808;-75
2023/08/14 00:13:50;;;;;;;3.20;1.70;;;;;;;19.01;100.00;95969.31;5053249;28;24986;-75
2023/08/14 00:16:17;;;;;;;2.53;1.88;;;;;;;19.06;100.00;95967.94;5053544;28;24520;-74
2023/08/14 00:18:43;;;;;;;4.38;1.95;;;;;;;19.13;100.00;95965.53;5053053;28;24451;-75
2023/08/14 00:21:10;;;;;;;4.13;2.00;;;;;;;19.10;100.00;95965.84;5053464;28;24442;-75
2023/08/14 00:23:37;;;;;;;6.30;2.15;;;;;;;19.12;100.00;95963.06;5053039;28;25021;-75
2023/08/14 00:26:04;;;;;;;5.13;2.10;;;;;;;19.19;100.00;95966.78;5037672;28;24439;-75
2023/08/14 00:28:30;;;;;;;2.60;1.60;;;;;;;19.23;100.00;95963.72;5052719;28;25032;-74
2023/08/14 00:30:57;;;;;;;2.70;1.92;;;;;;;19.29;100.00;95970.19;5053238;28;25020;-75
2023/08/14 00:33:23;;;;;;;4.07;2.20;;;;;;;19.25;100.00;95963.59;5053139;28;24438;-75
2023/08/14 00:35:50;;;;;;;8.55;2.00;;;;;;;19.19;100.00;95957.09;5053025;28;24438;-75
2023/08/14 00:38:16;;;;;;;4.35;2.08;;;;;;;19.20;100.00;95957.94;5052805;28;24463;-75
2023/08/14 00:40:44;;;;;;;2.70;2.03;;;;;;;19.22;100.00;95945.50;5053111;28;24466;-74
2023/08/14 00:43:10;;;;;;;6.43;2.00;;;;;;;19.23;100.00;95941.88;5052971;28;24442;-75
2023/08/14 00:45:38;;;;;;;3.40;1.90;;;;;;;19.20;100.00;95945.63;5052765;28;24439;-74
2023/08/14 00:48:05;;;;;;;2.40;1.80;;;;;;;19.21;100.00;95943.84;5052447;28;24432;-75
2023/08/14 00:50:33;;;;;;;3.92;2.00;;;;;;;19.22;100.00;95943.69;5052848;28;24435;-75
2023/08/14 00:53:02;;;;;;;6.30;2.00;;;;;;;19.20;100.00;95955.28;5052816;28;24443;-75
2023/08/14 00:55:28;;;;;;;3.80;2.13;;;;;;;19.22;100.00;95964.69;5052635;28;24439;-75
2023/08/14 00:57:57;;;;;;;2.10;1.90;;;;;;;19.20;100.00;95965.81;5052030;28;24458;-75
2023/08/14 01:00:27;;;;;;;3.15;1.80;;;;;;;19.20;100.00;95973.69;5052432;28;24432;-74
2023/08/14 01:02:54;;;;;;;3.75;1.90;;;;;;;19.08;100.00;95968.59;5052677;28;24447;-74
2023/08/14 01:05:21;;;;;;;2.30;1.83;;;;;;;19.03;100.00;95975.28;5052454;28;24536;-75
2023/08/14 01:07:47;;;;;;;2.85;2.10;;;;;;;18.94;100.00;95981.38;5051661;28;24427;-75
2023/08/14 01:10:14;;;;;;;4.07;2.30;;;;;;;18.96;100.00;95985.50;5051693;28;24447;-75
2023/08/14 01:12:46;;;;;;;4.67;2.10;;;;;;;18.98;100.00;95986.19;5052174;28;24438;-75
2023/08/14 01:15:18;;;;;;;2.60;1.88;;;;;;;19.00;100.00;95983.44;5052253;28;24481;-75
2023/08/14 01:17:50;;;;;;;4.15;2.20;;;;;;;19.03;100.00;95977.91;5051859;28;24434;-75
2023/08/14 01:20:18;;;;;;;3.13;2.23;;;;;;;19.06;100.00;95972.38;5051918;28;24474;-74
2023/08/14 01:22:51;;;;;;;2.80;2.03;;;;;;;19.05;100.00;95968.88;5051836;28;24439;-74
2023/08/14 01:25:31;;;;;;;3.00;2.47;;;;;;;19.17;100.00;95974.81;5051701;28;24439;-74
2023/08/14 01:27:58;;;;;;;7.03;2.85;;;;;;;19.22;100.00;95963.88;5051516;28;24481;-74
2023/08/14 01:30:26;;;;;;;7.40;3.47;;;;;;;19.23;100.00;95968.97;5051617;28;24446;-74
2023/08/14 01:32:53;;;;;;;4.00;2.63;;;;;;;19.16;100.00;95972.31;5051875;28;24435;-74
2023/08/14 01:35:21;;;;;;;5.63;3.30;;;;;;;19.03;100.00;95978.72;5051147;28;24438;-74
2023/08/14 01:37:59;;;;;;;3.88;2.85;;;;;;;19.05;100.00;95970.69;5050935;28;24428;-75
2023/08/14 01:40:34;;;;;;;7.10;3.40;;;;;;;19.01;100.00;95956.19;5051712;28;24431;-75
2023/08/14 01:43:05;;;;;;;4.13;2.92;;;;;;;19.12;100.00;95952.56;5051395;28;24997;-75
2023/08/14 01:45:34;;;;;;;3.87;2.70;;;;;;;19.12;100.00;95929.78;5051527;28;24435;-75
2023/08/14 01:48:02;;;;;;;5.17;3.17;;;;;;;19.19;100.00;95930.03;5051099;28;24534;-75
2023/08/14 01:50:30;;;;;;;3.80;3.05;;;;;;;19.18;100.00;95937.06;5050926;28;24446;-75
2023/08/14 01:52:58;;;;;;;5.88;3.08;;;;;;;19.14;100.00;95934.91;5051436;28;24435;-75
2023/08/14 01:55:25;;;;;;;6.13;3.30;;;;;;;19.17;100.00;95937.19;5051596;28;24434;-75
2023/08/14 01:57:53;;;;;;;6.53;3.30;;;;;;;19.08;100.00;95928.41;5050807;28;25024;-75
2023/08/14 02:00:20;;;;;;;6.75;2.97;;;;;;;19.03;100.00;95923.59;5051083;28;24450;-75
2023/08/14 02:02:47;;;;;;;8.25;2.83;;;;;;;19.10;100.00;95913.34;5051218;28;24502;-75
2023/08/14 02:05:13;;;;;;;4.93;3.38;;;;;;;19.15;100.00;95894.53;5050854;28;24438;-75
2023/08/14 02:07:40;;;;;;;4.82;3.20;;;;;;;19.16;100.00;95883.88;5050954;28;24431;-75
2023/08/14 02:10:07;;;;;;;4.87;2.93;;;;;;;19.15;100.00;95879.59;5050854;28;24518;-75
2023/08/14 02:12:33;;;;;;;4.10;2.75;;;;;;;19.06;100.00;95885.75;5051156;28;24497;-75
2023/08/14 02:15:01;;;;;;;5.53;3.00;;;;;;;18.99;100.00;95885.50;5051324;28;24476;-75
2023/08/14 02:17:28;;;;;;;4.18;2.85;;;;;;;19.07;100.00;95877.72;5050499;28;24530;-75
2023/08/14 02:19:54;;;;;;;4.78;2.80;;;;;;;19.13;100.00;95872.84;5049808;28;24552;-75
2023/08/14 02:22:21;;;;;;;6.10;2.95;;;;;;;19.12;100.00;95876.44;5050610;28;24443;-75
2023/08/14 02:24:47;;;;;;;5.03;2.88;;;;;;;19.18;100.00;95860.13;5050790;28;24438;-75
2023/08/14 02:27:14;;;;;;;6.35;3.03;;;;;;;19.22;100.00;95856.22;5050772;28;24438;-75
2023/08/14 02:29:40;;;;;;;6.07;3.20;;;;;;;19.20;100.00;95850.28;5050019;28;24435;-75
2023/08/14 02:32:08;;;;;;;4.35;2.90;;;;;;;19.18;100.00;95847.00;5050264;28;24435;-75
2023/08/14 02:34:43;;;;;;;4.60;2.97;;;;;;;19.07;100.00;95848.84;5050104;28;24442;-75
2023/08/14 02:37:10;;;;;;;8.23;3.00;;;;;;;19.00;100.00;95846.94;5050591;28;24446;-75
2023/08/14 02:39:36;;;;;;;6.43;3.05;;;;;;;19.05;100.00;95837.66;5049880;28;24578;-75
2023/08/14 02:42:03;;;;;;;3.63;2.80;;;;;;;19.08;100.00;95834.72;5050318;28;24435;-75
2023/08/14 02:44:29;;;;;;;4.03;2.95;;;;;;;18.96;100.00;95835.91;5050206;28;24493;-75
2023/08/14 02:46:57;;;;;;;7.38;3.38;;;;;;;18.80;100.00;95841.78;5050204;28;24438;-75
2023/08/14 02:49:25;;;;;;;4.33;3.10;;;;;;;18.75;100.00;95845.81;5049873;28;24830;-75
2023/08/14 02:51:53;;;;;;;4.88;3.03;;;;;;;18.69;100.00;95846.34;5050425;28;24435;-75
2023/08/14 02:54:19;;;;;;;4.83;3.07;;;;;;;18.66;100.00;95855.34;5049994;28;24527;-75
2023/08/14 02:56:46;;;;;;;7.43;3.50;;;;;;;18.44;100.00;95861.78;5050223;28;24439;-75
2023/08/14 02:59:12;;;;;;;4.90;3.28;;;;;;;18.34;100.00;95860.97;5049367;28;24463;-75
2023/08/14 03:01:39;;;;;;;6.05;3.20;;;;;;;18.28;100.00;95861.53;5049744;28;24961;-75
2023/08/14 03:04:06;;;;;;;5.00;3.15;;;;;;;18.33;100.00;95857.53;5050019;28;24435;-75
2023/08/14 03:06:34;;;;;;;4.43;2.90;;;;;;;18.38;100.00;95871.00;5049986;28;24435;-75
2023/08/14 03:09:01;;;;;;;3.70;3.22;;;;;;;18.41;100.00;95867.28;5049536;28;24435;-75
2023/08/14 03:11:27;;;;;;;6.55;3.67;;;;;;;18.37;100.00;95881.66;5049923;28;24435;-75
2023/08/14 03:13:54;;;;;;;7.32;3.15;;;;;;;18.44;100.00;95877.50;5049471;28;24438;-75
2023/08/14 03:16:20;;;;;;;4.43;3.08;;;;;;;18.36;100.00;95886.09;5049838;28;24858;-75
2023/08/14 03:18:47;;;;;;;5.57;2.60;;;;;;;18.33;100.00;95875.03;5049427;28;24466;-75
2023/08/14 03:21:13;;;;;;;5.57;3.13;;;;;;;18.24;100.00;95888.97;5049713;28;24434;-75
2023/08/14 03:23:41;;;;;;;4.00;2.47;;;;;;;18.22;100.00;95877.84;5049876;28;24434;-75
2023/08/14 03:26:09;;;;;;;3.22;1.95;;;;;;;18.16;100.00;95878.38;5049628;28;24497;-75
2023/08/14 03:28:36;;;;;;;3.50;2.22;;;;;;;18.18;100.00;95874.66;5049160;28;24484;-75
2023/08/14 03:31:02;;;;;;;2.40;1.80;;;;;;;18.23;100.00;95880.28;5049498;28;24435;-75
2023/08/14 03:33:29;;;;;;;3.00;1.98;;;;;;;18.18;100.00;95893.00;5049456;28;24476;-75
2023/08/14 03:35:55;;;;;;;2.20;1.90;;;;;;;18.17;100.00;95888.75;5049466;28;24431;-75
2023/08/14 03:38:22;;;;;;;4.00;2.33;;;;;;;18.17;100.00;95880.88;5049310;28;24482;-75
2023/08/14 03:40:49;;;;;;;2.95;1.88;;;;;;;18.25;100.00;95880.19;5049613;28;24450;-75
2023/08/14 03:43:16;;;;;;;3.35;2.10;;;;;;;18.28;100.00;95874.63;5049487;28;24444;-75
2023/08/14 03:45:42;;;;;;;3.78;1.95;;;;;;;18.32;100.00;95870.78;5049490;28;24435;-75
2023/08/14 03:48:12;;;;;;;3.00;1.95;;;;;;;18.33;100.00;95882.91;5049745;28;24442;-76
2023/08/14 03:50:38;;;;;;;3.00;2.00;;;;;;;18.35;100.00;95888.81;5049303;28;24451;-75
2023/08/14 03:53:05;;;;;;;1.92;1.63;;;;;;;18.36;100.00;95890.50;5049705;28;24439;-75
2023/08/14 03:55:31;;;;;;;2.65;1.83;;;;;;;18.36;100.00;95890.50;5049887;28;24438;-75
2023/08/14 03:57:59;;;;;;;2.43;2.03;;;;;;;18.26;100.00;95897.56;5049580;28;24435;-75
2023/08/14 04:00:25;;;;;;;2.60;1.90;;;;;;;18.29;100.00;95902.53;5048831;28;24604;-75
2023/08/14 04:02:52;;;;;;;2.58;2.03;;;;;;;18.32;100.00;95907.50;5049602;28;24438;-75
2023/08/14 04:05:18;;;;;;;3.20;1.88;;;;;;;18.34;100.00;95898.50;5049368;28;24438;-74
2023/08/14 04:07:44;;;;;;;3.40;2.03;;;;;;;18.36;100.00;95893.13;5048854;28;24445;-75
2023/08/14 04:10:11;;;;;;;3.10;2.40;;;;;;;18.44;100.00;95884.56;5044546;28;24439;-75
2023/08/14 04:12:38;;;;;;;3.78;2.13;;;;;;;18.41;100.00;95883.03;5049454;28;24445;-75
2023/08/14 04:15:16;;;;;;;8.20;2.30;;;;;;;18.29;100.00;95894.66;5048941;28;24499;-75
2023/08/14 04:17:42;;;;;;;3.83;2.00;;;;;;;18.30;100.00;95897.13;5049251;28;24439;-75
2023/08/14 04:20:10;;;;;;;2.90;1.77;;;;;;;18.28;100.00;95895.59;5048493;28;24462;-75
2023/08/14 04:22:36;;;;;;;2.50;1.77;;;;;;;18.27;100.00;95896.56;5049370;28;24474;-75
2023/08/14 04:25:03;;;;;;;5.53;2.00;;;;;;;18.18;100.00;95893.00;5049721;28;24447;-75
2023/08/14 04:27:30;;;;;;;2.83;1.70;;;;;;;18.13;100.00;95893.44;5049487;28;24443;-75
2023/08/14 04:29:57;;;;;;;3.50;1.55;;;;;;;18.16;100.00;95894.09;5048788;28;24442;-75
2023/08/14 04:32:25;;;;;;;1.95;1.50;;;;;;;18.17;100.00;95887.88;5049325;28;24435;-75
2023/08/14 04:34:51;;;;;;;1.98;1.60;;;;;;;18.20;100.00;95896.31;5048546;28;24431;-75
2023/08/14 04:37:18;;;;;;;2.08;1.52;;;;;;;18.14;100.00;95896.88;5049439;28;24690;-75
2023/08/14 04:39:44;;;;;;;4.72;1.88;;;;;;;18.19;100.00;95901.69;5048686;28;24997;-75
2023/08/14 04:42:10;;;;;;;2.90;1.90;;;;;;;18.05;100.00;95895.09;5049083;28;24443;-75
2023/08/14 04:44:37;;;;;;;3.47;1.60;;;;;;;18.06;100.00;95899.38;5051282;28;24435;-75
2023/08/14 04:47:03;;;;;;;2.70;1.65;;;;;;;18.01;100.00;95893.72;5052556;28;24438;-75
2023/08/14 04:49:31;;;;;;;3.05;1.50;;;;;;;18.03;100.00;95891.78;5052100;28;24454;-75
2023/08/14 04:51:58;;;;;;;2.75;1.52;;;;;;;18.00;100.00;95895.50;5052286;28;24446;-78
2023/08/14 04:54:27;;;;;;;2.65;1.63;;;;;;;18.01;100.00;95876.19;5052574;28;24442;-75
2023/08/14 04:56:53;;;;;;;5.18;1.73;;;;;;;18.02;100.00;95869.16;5052301;28;24466;-74
2023/08/14 04:59:20;;;;;;;2.77;1.60;;;;;;;18.01;100.00;95876.19;5051976;28;24459;-74
2023/08/14 05:01:46;;;;;;;6.93;1.75;;;;;;;17.95;100.00;95863.66;5051765;28;24431;-74
2023/08/14 05:04:13;;;;;;;2.70;1.35;;;;;;;18.02;100.00;95867.38;5052129;28;24419;-74
2023/08/14 05:06:40;;;;;;;2.78;1.48;;;;;;;18.01;100.00;95860.47;5052502;28;24443;-74
2023/08/14 05:09:07;;;;;;;3.53;1.80;;;;;;;18.18;100.00;95869.41;5052029;28;24432;-73
2023/08/14 05:11:33;;;;;;;2.60;1.50;;;;;;;18.22;100.00;95870.78;5052596;28;24798;-74
2023/08/14 05:14:00;;;;;;;2.72;1.80;;;;;;;18.32;100.00;95868.97;5052233;28;25013;-74
2023/08/14 05:16:26;;;;;;;8.00;1.58;;;;;;;18.32;100.00;95862.91;5052346;28;24470;-74
2023/08/14 05:18:53;;;;;;;2.28;1.40;;;;;;;18.37;100.00;95863.31;5051785;28;24449;-74
2023/08/14 05:21:19;;;;;;;3.20;1.43;;;;;;;18.46;100.00;95867.69;5052155;28;24442;-74
2023/08/14 05:23:47;;;;;;;2.38;1.60;;;;;;;18.48;100.00;95864.94;5051647;28;24438;-74
2023/08/14 05:26:13;;;;;;;2.80;1.50;;;;;;;18.42;100.00;95852.38;5052114;28;24431;-75
2023/08/14 05:28:40;;;;;;;2.58;1.50;;;;;;;18.46;100.00;95856.38;5051972;28;24438;-75
2023/08/14 05:31:08;;;;;;;6.13;1.83;;;;;;;18.48;100.00;95863.13;5052295;28;24490;-75
2023/08/14 05:33:34;;;;;;;3.00;1.60;;;;;;;18.53;100.00;95860.06;5052317;28;24485;-76
2023/08/14 05:36:01;;;;;;;4.65;1.60;;;;;;;18.52;100.00;95854.00;5052061;28;24442;-75
2023/08/14 05:38:27;;;;;;;2.65;1.70;;;;;;;18.48;100.00;95855.28;5051572;28;24522;-75
2023/08/14 05:40:55;;;;;;;3.30;1.80;;;;;;;18.46;100.00;95846.69;5051991;28;24443;-76
2023/08/14 05:43:21;;;;;;;2.47;1.80;;;;;;;18.40;100.00;95844.69;5051571;28;24446;-76
2023/08/14 05:45:50;;;;;;;2.70;2.00;;;;;;;18.33;100.00;95840.97;5052054;28;24452;-77
2023/08/14 05:48:16;;;;;;;1.65;1.45;;;;;;;18.38;100.00;95831.69;5051716;28;24493;-76
2023/08/14 05:50:43;;;;;;;5.22;1.75;;;;;;;18.35;100.00;95834.63;5051776;28;24949;-75
2023/08/14 05:53:09;;;;;;;2.42;1.80;;;;;;;18.26;100.00;95838.06;5051923;28;24435;-75
2023/08/14 05:55:37;;;;;;;5.68;2.30;;;;;;;18.31;100.00;95850.75;5050659;28;24442;-77
2023/08/14 05:58:06;;;;;;;3.75;1.98;;;;;;;18.34;100.00;95848.66;5051122;28;24957;-77
2023/08/14 06:00:33;;;;;;;3.58;1.90;;;;;;;18.26;100.00;95853.81;5051681;28;24997;-78
2023/08/14 06:03:00;;;;;;;2.92;1.90;;;;;;;18.22;100.00;95855.06;5051650;28;24422;-78
2023/08/14 06:05:27;;;;;;;2.53;1.92;;;;;;;18.19;100.00;95849.28;5051829;28;24439;-78
2023/08/14 06:07:55;;;;;;;2.80;1.83;;;;;;;18.21;100.00;95848.16;5051427;28;24447;-76
2023/08/14 06:10:22;;;;;;;2.72;2.00;;;;;;;18.28;100.00;95851.03;5051234;28;24506;-76
2023/08/14 06:12:49;;;;;;;3.03;1.80;;;;;;;18.28;100.00;95856.28;5051432;28;24426;-75
2023/08/14 06:15:19;;;;;;;3.50;1.95;;;;;;;18.40;100.00;95849.91;5051462;28;25189;-78
2023/08/14 06:17:46;;;;;;;2.65;1.95;;;;;;;18.45;100.00;95836.38;5051967;28;24489;-77
2023/08/14 06:20:13;;;;;;;2.90;1.98;;;;;;;18.75;100.00;95848.44;5051024;28;24455;-77
2023/08/14 06:22:40;;;;;;;4.80;2.03;;;;;;;18.84;100.00;95850.22;5052077;28;24412;-79
2023/08/14 06:25:08;;;;;;;1.95;1.80;;;;;;;19.01;100.00;95849.41;5054209;28;24471;-79
2023/08/14 06:27:34;;;;;;;2.90;1.70;;;;;;;19.11;100.00;95844.13;5038083;28;25245;-78
2023/08/14 06:30:01;;;;;;;2.95;1.90;;;;;;;19.17;100.00;95842.69;5051444;28;24435;-78
2023/08/14 06:32:29;;;;;;;2.30;1.80;;;;;;;19.21;100.00;95841.44;5052675;28;24419;-79
2023/08/14 06:34:55;;;;;;;2.88;2.13;;;;;;;19.13;100.00;95849.22;5051071;28;24435;-74
2023/08/14 06:37:22;;;;;;;2.22;2.00;;;;;;;19.28;100.00;95847.72;5050353;28;24435;-74
2023/08/14 06:39:48;;;;;;;3.22;1.90;;;;;;;19.36;100.00;95847.03;5050239;28;24468;-74
2023/08/14 06:42:15;;;;;;;3.33;2.13;;;;;;;19.53;100.00;95860.16;5051162;28;24458;-76
2023/08/14 06:44:41;;;;;;;2.20;1.50;;;;;;;19.59;100.00;95859.56;5050934;28;25017;-76
2023/08/14 06:47:08;;;;;;;2.92;1.80;;;;;;;19.80;100.00;95856.66;5051154;28;24419;-77
2023/08/14 06:49:36;;;;;;;3.67;1.70;;;;;;;19.92;100.00;95859.88;5050544;28;24423;-76
2023/08/14 06:52:03;;;;;;;2.72;1.50;;;;;;;20.12;100.00;95857.91;5050560;28;24435;-73
2023/08/14 06:54:29;;;;;;;2.97;1.80;;;;;;;20.19;100.00;95855.50;5050077;28;24465;-74
2023/08/14 06:56:55;;;;;;;7.00;1.63;;;;;;;20.44;100.00;95854.69;5050403;28;24471;-74
2023/08/14 06:59:22;;;;;;;2.83;1.58;;;;;;;20.62;100.00;95852.03;5050053;28;24481;-73
2023/08/14 07:01:48;;;;;;;3.80;1.60;;;;;;;20.97;100.00;95855.47;5050360;28;24780;-74
2023/08/14 07:04:15;;;;;;;3.70;1.80;;;;;;;21.07;100.00;95853.53;5050444;28;24842;-76
2023/08/14 07:06:43;;;;;;;4.43;1.75;;;;;;;21.09;100.00;95845.47;5050007;28;24419;-77
2023/08/14 07:09:09;;;;;;;2.73;1.67;;;;;;;21.19;100.00;95848.78;5050464;28;24440;-76
2023/08/14 07:11:38;;;;;;;4.20;1.73;;;;;;;21.55;100.00;95849.41;5054190;28;24427;-79
2023/08/14 07:14:06;;;;;;;4.00;1.73;;;;;;;21.65;100.00;95859.78;5050633;28;24624;-76
2023/08/14 07:16:32;;;;;;;3.30;1.90;;;;;;;21.77;100.00;95844.47;5050159;28;24477;-77
2023/08/14 07:18:59;;;;;;;2.30;1.50;;;;;;;21.89;100.00;95846.66;5049729;28;24427;-76
2023/08/14 07:21:25;;;;;;;3.00;1.80;;;;;;;22.22;100.00;95847.50;5050293;28;24443;-76
2023/08/14 07:23:53;;;;;;;2.17;1.98;;;;;;;22.90;100.00;95848.81;5049921;28;24832;-77
2023/08/14 07:26:19;;;;;;;5.03;1.90;;;;;;;22.82;100.00;95848.03;5050072;28;24467;-77
2023/08/14 07:28:46;;;;;;;2.63;1.83;;;;;;;22.75;100.00;95847.06;5049886;28;24435;-77
2023/08/14 07:31:12;;;;;;;2.80;2.03;;;;;;;23.14;100.00;95844.47;5050133;28;24423;-77
2023/08/14 07:33:39;;;;;;;2.00;1.73;;;;;;;23.03;100.00;95850.16;5050871;28;24778;-77
2023/08/14 07:36:05;;;;;;;3.10;1.90;;;;;;;22.93;100.00;95847.69;5051688;28;24419;-77
2023/08/14 07:38:32;;;;;;;3.63;2.13;;;;;;;22.93;100.00;95842.41;5050629;28;24426;-78
2023/08/14 07:41:00;;;;;;;4.53;2.63;;;;;;;22.77;100.00;95845.91;5050619;28;24482;-78
2023/08/14 07:43:26;;;;;;;5.60;2.27;;;;;;;22.76;100.00;95848.69;5049501;28;24969;-77
2023/08/14 07:45:54;;;;;;;3.30;2.03;;;;;;;22.88;100.00;95845.53;5049362;28;24440;-77
2023/08/14 07:48:20;;;;;;;3.58;2.47;;;;;;;22.81;100.00;95833.19;5049734;28;24481;-77
2023/08/14 07:50:52;;;;;;;4.05;1.95;;;;;;;23.08;100.00;95848.63;5049582;28;24427;-77
2023/08/14 07:53:18;;;;;;;5.30;2.40;;;;;;;23.27;100.00;95855.28;5050021;28;24431;-71
2023/08/14 07:55:45;;;;;;;4.20;2.00;;;;;;;23.66;100.00;95846.50;5049919;28;24439;-71
2023/08/14 07:58:13;;;;;;;4.95;2.45;;;;;;;23.86;100.00;95852.16;5049168;28;24436;-75
2023/08/14 08:00:39;;;;;;;3.63;2.23;;;;;;;23.96;100.00;95851.94;5049504;28;24552;-76
2023/08/14 08:03:06;;;;;;;4.40;2.20;;;;;;;24.00;100.00;95850.59;5049630;28;24439;-76
2023/08/14 08:05:32;;;;;;;2.90;2.40;;;;;;;23.78;100.00;95855.69;5049366;28;25085;-76
2023/08/14 08:08:01;;;;;;;3.42;2.33;;;;;;;23.90;100.00;95858.75;5049678;28;24451;-76
2023/08/14 08:10:27;;;;;;;3.58;2.65;;;;;;;24.10;100.00;95859.06;5050022;28;24439;-76
2023/08/14 08:12:54;;;;;;;3.75;2.10;;;;;;;24.36;100.00;95866.63;5049641;28;24426;-78
2023/08/14 08:15:21;;;;;;;5.25;2.65;;;;;;;24.59;100.00;95859.50;5049560;28;24454;-78
2023/08/14 08:17:48;;;;;;;4.00;2.70;;;;;;;24.82;100.00;95866.53;5049894;28;25001;-76
2023/08/14 08:20:15;;;;;;;4.80;2.70;;;;;;;24.91;100.00;95864.63;5053083;28;24455;-76
2023/08/14 08:22:41;;;;;;;5.63;2.75;;;;;;;24.86;100.00;95868.63;5053433;28;24469;-75
2023/08/14 08:25:09;;;;;;;7.13;2.90;;;;;;;25.02;100.00;95875.56;5053057;28;24443;-76
2023/08/14 08:27:35;;;;;;;5.65;2.60;;;;;;;25.18;100.00;95879.91;5053256;28;24923;-75
2023/08/14 08:30:03;;;;;;;6.45;2.92;;;;;;;25.32;100.00;95884.34;5052794;28;25017;-76
2023/08/14 08:32:30;;;;;;;3.30;2.78;;;;;;;25.62;100.00;95892.25;5034338;28;24470;-75
2023/08/14 08:34:57;;;;;;;3.88;2.85;;;;;;;25.89;100.00;95884.63;5053127;28;24473;-75
2023/08/14 08:37:23;;;;;;;5.10;2.70;;;;;;;26.23;100.00;95878.63;5053201;28;24426;-76
2023/08/14 08:39:50;;;;;;;4.45;2.67;;;;;;;26.47;100.00;95877.41;5052635;28;24443;-77
2023/08/14 08:42:18;;;;;;;4.30;2.95;;;;;;;26.58;100.00;95886.69;5053084;28;24430;-76
2023/08/14 08:44:46;;;;;;;3.55;2.63;;;;;;;26.58;100.00;95881.38;5045300;28;24430;-76
2023/08/14 08:47:15;;;;;;;5.15;2.63;;;;;;;26.55;100.00;95882.59;5052815;28;24458;-75
2023/08/14 08:49:44;;;;;;;6.00;3.10;;;;;;;26.82;100.00;95883.59;5052187;28;24471;-75
2023/08/14 08:52:11;;;;;;;6.38;3.20;;;;;;;26.84;100.00;95886.03;5052971;28;24423;-75
2023/08/14 08:54:39;;;;;;;4.13;3.10;;;;;;;26.96;100.00;95887.16;5052801;28;24901;-75
2023/08/14 08:57:05;;;;;;;4.80;2.97;;;;;;;27.03;100.00;95885.31;5052136;28;24438;-76
2023/08/14 08:59:33;;;;;;;3.90;2.87;;;;;;;27.57;100.00;95881.94;5053523;28;24450;-76
2023/08/14 09:01:59;;;;;;;4.38;3.03;;;;;;;27.48;100.00;95883.97;5053795;28;24487;-75
2023/08/14 09:04:26;;;;;;;6.75;3.08;;;;;;;27.85;100.00;95879.19;5053657;28;24423;-77
2023/08/14 09:06:54;;;;;;;5.55;2.85;;;;;;;27.79;100.00;95881.81;5053098;28;24790;-77
2023/08/14 09:09:20;;;;;;;5.15;3.10;;;;;;;27.68;100.00;95884.00;5052647;28;24450;-77
2023/08/14 09:11:47;;;;;;;5.47;3.07;;;;;;;27.66;100.00;95878.09;5052967;28;24462;-77
2023/08/14 09:14:15;;;;;;;4.70;3.00;;;;;;;27.74;100.00;95871.75;5052690;28;24419;-77
2023/08/14 09:16:42;;;;;;;4.53;2.88;;;;;;;27.79;100.00;95879.97;5052590;28;24806;-77
2023/08/14 09:19:08;;;;;;;5.17;2.93;;;;;;;27.89;100.00;95879.59;5038227;28;24529;-76
2023/08/14 09:21:34;;;;;;;7.32;3.15;;;;;;;28.09;100.00;95877.78;5052880;28;24450;-76
2023/08/14 09:24:03;;;;;;;4.22;3.08;;;;;;;27.97;100.00;95879.41;5052598;28;24434;-77
2023/08/14 09:26:30;;;;;;;7.20;3.00;;;;;;;28.09;100.00;95879.63;5052586;28;24510;-76
2023/08/14 09:28:57;;;;;;;3.22;2.72;;;;;;;27.59;100.00;95881.72;5051603;28;24439;-74
2023/08/14 09:31:23;;;;;;;5.85;3.08;;;;;;;27.78;100.00;95874.88;5052297;28;24771;-74
2023/08/14 09:33:50;;;;;;;4.90;3.10;;;;;;;28.44;100.00;95877.63;5052276;28;24438;-74
2023/08/14 09:36:16;;;;;;;7.18;3.30;;;;;;;27.91;100.00;95877.53;5052102;28;24438;-74
2023/08/14 09:38:43;;;;;;;5.32;3.53;;;;;;;27.91;100.00;95873.03;5051915;28;24522;-74
2023/08/14 09:41:11;;;;;;;3.92;2.75;;;;;;;28.02;100.00;95873.47;5052195;28;24455;-74
2023/08/14 09:43:37;;;;;;;5.15;3.15;;;;;;;28.00;100.00;95871.03;5051809;28;24490;-74
2023/08/14 09:46:04;;;;;;;4.37;2.80;;;;;;;27.61;100.00;95871.72;5052011;28;24470;-74
2023/08/14 09:48:41;;;;;;;4.78;3.38;;;;;;;27.77;100.00;95875.88;5052107;28;24444;-74
2023/08/14 09:51:10;;;;;;;9.38;3.05;;;;;;;28.09;100.00;95861.81;5051096;28;24508;-74
2023/08/14 09:53:44;;;;;;;6.10;3.20;;;;;;;28.54;100.00;95862.03;5051545;28;24905;-74
2023/08/14 09:56:12;;;;;;;6.38;3.15;;;;;;;28.52;100.00;95864.13;5048641;28;24929;-76
2023/08/14 09:58:39;;;;;;;4.30;2.72;;;;;;;28.40;100.00;95868.41;5049341;28;24450;-76
2023/08/14 10:01:06;;;;;;;5.13;3.20;;;;;;;28.27;100.00;95868.38;5050477;28;24534;-77
2023/08/14 10:03:34;;;;;;;4.90;2.90;;;;;;;28.43;100.00;95870.66;5051452;28;24468;-76
2023/08/14 10:06:03;;;;;;;5.80;3.03;;;;;;;28.46;100.00;95863.06;5050603;28;24456;-76
2023/08/14 10:08:31;;;;;;;4.60;3.00;;;;;;;28.45;100.00;95863.28;5048377;28;24489;-77
2023/08/14 10:10:58;;;;;;;7.18;2.90;;;;;;;28.60;100.00;95871.88;5048988;28;25020;-77
2023/08/14 10:13:27;;;;;;;5.45;2.90;;;;;;;28.64;100.00;95870.44;5050141;28;24438;-77
2023/08/14 10:15:56;;;;;;;4.78;3.10;;;;;;;28.36;100.00;95870.63;5051345;28;24434;-77
2023/08/14 10:18:24;;;;;;;4.07;2.92;;;;;;;28.32;100.00;95874.72;5050738;28;24582;-76
2023/08/14 10:20:54;;;;;;;4.72;2.72;;;;;;;28.55;100.00;95869.00;5050828;28;24454;-76
2023/08/14 10:23:21;;;;;;;5.10;2.90;;;;;;;28.39;100.00;95872.91;5051461;28;24442;-77
2023/08/14 10:25:50;;;;;;;3.80;2.60;;;;;;;28.78;100.00;95860.59;5049378;28;24443;-74
2023/08/14 10:28:18;;;;;;;4.47;2.72;;;;;;;28.87;100.00;95872.66;5050964;28;24435;-74
2023/08/14 10:30:47;;;;;;;6.88;2.58;;;;;;;28.93;100.00;95863.03;5049595;28;25009;-76
2023/08/14 10:33:15;;;;;;;3.67;2.72;;;;;;;29.29;100.00;95872.38;5050660;28;24443;-76
2023/08/14 10:35:45;;;;;;;3.97;2.83;;;;;;;29.41;100.00;95862.69;5050309;28;24424;-75
2023/08/14 10:38:12;;;;;;;4.93;2.80;;;;;;;29.58;100.00;95871.88;5050129;28;25002;-75
2023/08/14 10:40:51;;;;;;;3.55;2.70;;;;;;;29.52;100.00;95877.22;5049193;28;24431;-76
2023/08/14 10:43:17;;;;;;;3.27;2.60;;;;;;;29.52;100.00;95871.91;5049969;28;24503;-76
2023/08/14 10:45:45;;;;;;;6.75;3.00;;;;;;;29.52;100.00;95864.69;5050781;28;24419;-75
2023/08/14 10:48:13;;;;;;;4.28;2.67;;;;;;;29.32;100.00;95866.63;5048829;28;24427;-76
2023/08/14 10:50:40;;;;;;;3.85;2.55;;;;;;;29.31;100.00;95873.00;5050509;28;24453;-75
2023/08/14 10:53:06;;;;;;;3.28;2.28;;;;;;;29.29;100.00;95875.84;5050839;28;24825;-75
2023/08/14 10:55:38;;;;;;;4.50;2.60;;;;;;;29.06;99.91;95872.84;5050641;28;24419;-76
2023/08/14 10:58:35;;;;;;;4.25;2.40;;;;;;;28.73;98.63;95867.56;5049787;28;24807;-75
2023/08/14 11:01:04;;;;;;;3.67;2.47;;;;;;;28.70;100.00;95869.63;5049952;28;24471;-75
2023/08/14 11:03:33;;;;;;;3.67;2.50;;;;;;;28.40;96.67;95868.41;5050366;28;24427;-75
2023/08/14 11:06:00;;;;;;;6.05;2.60;;;;;;;28.65;87.88;95864.09;5049946;28;24426;-75
2023/08/14 11:08:30;;;;;;;4.07;2.53;;;;;;;28.71;80.74;95859.78;5049686;28;24538;-75
2023/08/14 11:10:57;;;;;;;3.60;2.78;;;;;;;28.75;82.23;95858.34;5049821;28;24455;-75
2023/08/14 11:13:28;;;;;;;3.65;2.65;;;;;;;28.82;79.39;95853.81;5047372;28;24434;-75
2023/08/14 11:15:54;;;;;;;3.63;2.45;;;;;;;29.15;81.07;95853.75;5050131;28;24826;-75
2023/08/14 11:18:22;;;;;;;3.72;2.70;;;;;;;29.26;80.57;95851.44;5049509;28;24439;-75
2023/08/14 11:20:49;;;;;;;5.83;2.97;;;;;;;29.12;87.99;95848.03;5049739;28;24997;-75
2023/08/14 11:23:15;;;;;;;5.15;2.67;;;;;;;29.27;78.69;95839.78;5049649;28;24430;-75
2023/08/14 11:25:42;;;;;;;2.78;2.20;;;;;;;29.04;75.40;95841.09;5049829;28;24477;-75
2023/08/14 11:28:08;;;;;;;3.77;2.40;;;;;;;29.12;76.84;95842.69;5050090;28;24431;-75